Stockholm Bromma, Sweden

8:14 AM CEST on September 22, 2014 (GMT +0200)
Stora Ursvik | Change Station
CLOSE
Current Station
Personal Weather Station
Location: Sundbyberg, STOCKHOLM COUNTY
Elevation: 95 ft
Nearby Weather Stations

Elev 95 ft 59.38 °N, 17.95 °E | Updated 7 minutes ago

Rain
Rain
52.3 °F
Feels Like 52.3 °F
N
5.4
Wind Variable Wind from NE
Gusts 9.2 mph

Today
High -- | Low -- °F
--% Chance of Precip.
Yesterday
High -- | Low -- °F
Precip. -- in
6:32 AM 6:48 PM
Waning Crescent, 4% visible
Pressure 29.53 in
Visibility 1.9 miles
Clouds Few 200 ft
Mostly Cloudy 700 ft
Dew Point 52 °F
Humidity 99%
Rainfall 0.33 in
Snow Depth Not available.
UV 0 out of 12
Pollen Not available.
Air Quality Not available.
Flu Activity Not available.
METAR ESSB 220550Z 36012KT 3000 RA FEW002 BKN007 12/11 Q1000

More Conditions Fewer Conditions

Pressure 29.53 in
Visibility 1.9 miles
Clouds Few 200 ft
Mostly Cloudy 700 ft
Dew Point 52 °F
Humidity 99%
Rainfall 0.33 in
Snow Depth Not available.
UV 0 out of 12
Pollen Not available.
Air Quality Not available.
Flu Activity Not available.
METAR ESSB 220550Z 36012KT 3000 RA FEW002 BKN007 12/11 Q1000

More Conditions Fewer Conditions

10-Day Weather Forecast

Almanac

Astronomy

Sep. 22, 2014 Rise Set
Actual Time 6:32 AM CEST 6:48 PM CEST
Civil Twilight 5:51 AM CEST 7:29 PM CEST
Nautical Twilight 5:01 AM CEST 8:18 PM CEST
Astronomical Twilight 4:08 AM CEST 9:11 PM CEST
Moon 4:25 AM CEST 5:58 PM CEST
Length of Visible Light 13h 38m
Length of Day
12h 16m
Tomorrow will be 5m 15s shorter.
Waning Crescent, 4% of the Moon is Illuminated
Today
Waning Crescent
Sep 24
New
Oct 1
First Quarter
Oct 8
Full
Oct 15
Last Quarter

Yesterday's Extremes

Country Highs Country Lows

Community

WunderPhotos

Upload Photos

1,755,392 photos uploaded!

Nearby

Snow Depth

Not available.

Earthquake Activity

City Distance Mag. Time & Date
No recent earthquake activity has been reported nearby.
Minimum magnitude displayed is 2.5.

Coastal Water Temperatures

Place Temperature
No Stations Reporting

Nearby Weather Stations